createdAt,value
2018-10-16T00:04:38.989Z,22.90
2018-10-16T00:09:42.321Z,22.89
2018-10-16T00:14:45.632Z,22.90
2018-10-16T00:19:48.968Z,22.90
2018-10-16T00:24:52.311Z,22.93
2018-10-16T00:29:55.641Z,22.91
2018-10-16T00:34:58.940Z,22.92
2018-10-16T00:40:02.449Z,22.93
2018-10-16T00:45:07.396Z,22.93
2018-10-16T00:50:10.831Z,22.89
2018-10-16T00:55:14.134Z,22.92
2018-10-16T01:00:17.454Z,22.92
2018-10-16T01:05:20.783Z,22.92
2018-10-16T01:10:24.079Z,22.95
2018-10-16T01:15:27.391Z,22.97
2018-10-16T01:20:31.196Z,22.94
2018-10-16T01:25:34.535Z,22.93
2018-10-16T01:30:37.846Z,22.92
2018-10-16T01:35:41.391Z,22.96
2018-10-16T01:40:44.679Z,22.92
2018-10-16T01:45:47.989Z,22.98
2018-10-16T01:50:51.283Z,22.95
2018-10-16T01:55:54.610Z,22.92
2018-10-16T02:00:58.140Z,22.89
2018-10-16T02:06:01.470Z,22.96
2018-10-16T02:11:04.949Z,22.92
2018-10-16T02:16:08.484Z,22.90
2018-10-16T02:21:11.776Z,22.91
2018-10-16T02:26:15.076Z,22.84
2018-10-16T02:31:18.468Z,22.94
2018-10-16T02:36:21.797Z,22.89
2018-10-16T02:41:25.088Z,22.92
2018-10-16T02:46:28.385Z,22.91
2018-10-16T02:51:31.698Z,22.92
2018-10-16T02:56:34.993Z,22.89
2018-10-16T03:01:38.288Z,22.96
2018-10-16T03:06:41.584Z,22.93
2018-10-16T03:11:44.904Z,22.92
2018-10-16T03:16:48.192Z,22.90
2018-10-16T03:21:51.491Z,22.89
2018-10-16T03:26:54.784Z,22.89
2018-10-16T03:31:58.073Z,22.90
2018-10-16T03:37:01.373Z,22.87
2018-10-16T03:42:04.663Z,22.88
2018-10-16T03:47:07.951Z,22.92
2018-10-16T03:52:11.248Z,22.83
2018-10-16T03:57:14.560Z,22.87
2018-10-16T04:02:17.858Z,22.82
2018-10-16T04:07:21.167Z,22.79
2018-10-16T04:12:24.477Z,22.80
2018-10-16T04:17:27.753Z,22.77
2018-10-16T04:22:31.108Z,22.78
2018-10-16T04:27:34.308Z,22.78
2018-10-16T04:32:37.583Z,22.77
2018-10-16T04:37:40.848Z,22.77
2018-10-16T04:42:44.255Z,22.72
2018-10-16T04:47:47.524Z,22.72
2018-10-16T04:52:50.985Z,22.74
2018-10-16T04:57:54.404Z,22.71
2018-10-16T05:03:00.031Z,22.68
2018-10-16T05:08:03.303Z,22.71
2018-10-16T05:13:06.634Z,22.70
2018-10-16T05:18:09.904Z,22.72
2018-10-16T05:23:13.257Z,22.70
2018-10-16T05:28:16.516Z,22.73
2018-10-16T05:33:19.791Z,22.68
2018-10-16T05:38:23.063Z,22.63
2018-10-16T05:43:26.523Z,22.61
2018-10-16T05:48:29.779Z,22.64
2018-10-16T05:53:33.115Z,22.60
2018-10-16T05:58:36.586Z,22.60
2018-10-16T06:03:39.860Z,22.56
2018-10-16T06:08:43.124Z,22.54
2018-10-16T06:13:46.383Z,22.52
2018-10-16T06:18:49.647Z,22.51
2018-10-16T06:23:52.908Z,22.51
2018-10-16T06:28:56.171Z,22.51
2018-10-16T06:33:59.456Z,22.55
2018-10-16T06:39:02.735Z,22.51
2018-10-16T06:44:06.593Z,22.55
2018-10-16T06:49:09.864Z,22.38
2018-10-16T06:54:13.158Z,22.50
2018-10-16T06:59:16.428Z,22.51
2018-10-16T07:04:19.691Z,22.55
2018-10-16T07:09:22.954Z,22.49
2018-10-16T07:14:26.225Z,22.48
2018-10-16T07:19:34.870Z,22.44
2018-10-16T07:24:38.208Z,22.38
2018-10-16T07:29:41.485Z,22.42
2018-10-16T07:34:44.767Z,22.39
2018-10-16T07:39:48.025Z,22.43
2018-10-16T07:44:51.315Z,22.38
2018-10-16T07:49:54.588Z,22.40
2018-10-16T07:54:57.857Z,22.40
2018-10-16T08:00:01.125Z,22.39
2018-10-16T08:05:04.733Z,22.32
2018-10-16T08:10:09.633Z,22.35
2018-10-16T08:15:12.897Z,22.42
2018-10-16T08:20:16.161Z,22.31
2018-10-16T08:25:19.430Z,22.33
2018-10-16T08:30:22.725Z,22.38
2018-10-16T08:35:25.989Z,22.37
2018-10-16T08:40:29.273Z,22.34
2018-10-16T08:45:44.017Z,22.30
2018-10-16T08:50:58.760Z,22.27
2018-10-16T08:56:02.033Z,22.23
2018-10-16T09:01:05.541Z,22.25
2018-10-16T09:06:08.810Z,22.35
2018-10-16T09:11:12.191Z,22.23
2018-10-16T09:16:15.464Z,22.19
2018-10-16T09:21:18.746Z,22.07
2018-10-16T09:26:22.005Z,22.02
2018-10-16T09:31:25.311Z,21.98
2018-10-16T09:36:28.611Z,21.98
2018-10-16T09:41:31.879Z,22.00
2018-10-16T09:46:35.139Z,22.00
2018-10-16T09:51:38.404Z,22.03
2018-10-16T09:56:41.667Z,22.04
2018-10-16T10:01:47.755Z,22.13
2018-10-16T10:06:51.024Z,22.15
2018-10-16T10:11:54.339Z,22.20
2018-10-16T10:16:57.577Z,22.20
2018-10-16T10:22:00.861Z,22.20
2018-10-16T10:27:04.123Z,22.19
2018-10-16T10:32:07.435Z,22.22
2018-10-16T10:37:11.040Z,22.20
2018-10-16T10:42:14.378Z,22.22
2018-10-16T10:47:17.759Z,22.25
2018-10-16T10:52:21.025Z,22.23
2018-10-16T10:57:24.296Z,22.19
2018-10-16T11:02:27.564Z,22.24
2018-10-16T11:07:30.839Z,22.18
2018-10-16T11:12:34.104Z,22.19
2018-10-16T11:17:38.135Z,22.21
2018-10-16T11:22:41.561Z,22.26
2018-10-16T11:27:44.819Z,22.22
2018-10-16T11:32:48.095Z,22.12
2018-10-16T11:37:51.436Z,22.19
2018-10-16T11:42:54.700Z,22.24
2018-10-16T11:47:57.977Z,22.31
2018-10-16T11:53:01.249Z,22.31
2018-10-16T11:58:04.524Z,22.28
2018-10-16T12:03:07.889Z,22.25
2018-10-16T12:08:11.229Z,22.27
2018-10-16T12:13:14.507Z,22.28
2018-10-16T12:18:21.451Z,22.30
2018-10-16T12:23:24.763Z,22.33
2018-10-16T12:28:28.276Z,22.33
2018-10-16T12:33:31.539Z,22.31
2018-10-16T12:38:35.215Z,22.27
2018-10-16T12:43:38.608Z,22.35
2018-10-16T12:48:41.717Z,22.31
2018-10-16T12:53:44.995Z,22.29
2018-10-16T12:58:48.264Z,22.40
2018-10-16T13:03:51.531Z,22.26
2018-10-16T13:08:54.859Z,22.19
2018-10-16T13:13:58.093Z,22.20
2018-10-16T13:19:01.355Z,22.04
2018-10-16T13:24:04.690Z,22.01
2018-10-16T13:29:07.633Z,22.25
2018-10-16T13:34:10.956Z,22.26
2018-10-16T13:39:14.201Z,22.34
2018-10-16T13:44:17.489Z,22.36
2018-10-16T13:49:20.758Z,22.40
2018-10-16T13:54:24.103Z,22.44
2018-10-16T13:59:27.377Z,22.41
2018-10-16T14:04:30.639Z,22.51
2018-10-16T14:09:33.903Z,22.66
2018-10-16T14:14:37.197Z,22.73
2018-10-16T14:19:40.604Z,22.78
2018-10-16T14:24:43.893Z,22.75
2018-10-16T14:29:47.158Z,22.72
2018-10-16T14:34:50.435Z,22.78
2018-10-16T14:39:53.759Z,22.85
2018-10-16T14:44:57.076Z,22.74
2018-10-16T14:50:00.511Z,22.79
2018-10-16T14:55:04.299Z,22.80
2018-10-16T15:00:09.465Z,22.80
2018-10-16T15:05:13.116Z,22.82
2018-10-16T15:10:16.419Z,22.79
2018-10-16T15:15:19.703Z,22.84
2018-10-16T15:20:23.004Z,22.80
2018-10-16T15:25:26.509Z,22.80
2018-10-16T15:30:29.911Z,22.80
2018-10-16T15:35:33.464Z,22.82
2018-10-16T15:40:36.727Z,22.85
2018-10-16T15:45:40.109Z,22.84
2018-10-16T15:50:44.396Z,22.86
2018-10-16T15:55:47.797Z,22.82
2018-10-16T16:00:51.115Z,22.86
2018-10-16T16:05:54.509Z,22.82
2018-10-16T16:10:57.991Z,22.80
2018-10-16T16:16:01.284Z,22.79
2018-10-16T16:21:04.592Z,22.82
2018-10-16T16:26:07.932Z,22.83
2018-10-16T16:31:11.209Z,22.83
2018-10-16T16:36:14.564Z,22.86
2018-10-16T16:41:17.878Z,22.83
2018-10-16T16:46:21.255Z,22.82
2018-10-16T16:51:24.659Z,22.84
2018-10-16T16:56:27.977Z,22.87
2018-10-16T17:01:31.294Z,22.84
2018-10-16T17:06:34.613Z,22.85
2018-10-16T17:11:37.987Z,22.87
2018-10-16T17:16:41.255Z,22.85
2018-10-16T17:21:44.536Z,22.88
2018-10-16T17:26:48.083Z,22.88
2018-10-16T17:31:51.325Z,22.86
2018-10-16T17:36:54.597Z,22.86
2018-10-16T17:41:58.059Z,22.87
2018-10-16T17:47:01.333Z,22.85
2018-10-16T17:52:04.640Z,22.87
2018-10-16T17:57:07.979Z,22.90
2018-10-16T18:02:11.268Z,22.90
2018-10-16T18:07:14.573Z,22.87
2018-10-16T18:12:17.944Z,22.87
2018-10-16T18:17:21.346Z,22.93
2018-10-16T18:22:24.612Z,22.87
2018-10-16T18:27:27.898Z,22.87
2018-10-16T18:32:31.237Z,22.83
2018-10-16T18:37:34.517Z,22.81
2018-10-16T18:42:37.783Z,22.81
2018-10-16T18:47:41.120Z,22.82
2018-10-16T18:52:45.144Z,22.78
2018-10-16T18:57:48.465Z,22.82
2018-10-16T19:02:51.729Z,22.81
2018-10-16T19:07:55.073Z,22.81
2018-10-16T19:13:01.299Z,22.77
2018-10-16T19:18:04.572Z,22.76
2018-10-16T19:23:07.865Z,22.76
2018-10-16T19:28:11.193Z,22.79
2018-10-16T19:33:14.481Z,22.79
2018-10-16T19:38:17.883Z,22.76
2018-10-16T19:43:22.049Z,22.75
2018-10-16T19:48:25.315Z,22.75
2018-10-16T19:53:28.597Z,22.73
2018-10-16T19:58:31.855Z,22.76
2018-10-16T20:03:35.119Z,22.71
2018-10-16T20:08:38.603Z,22.72
2018-10-16T20:13:41.907Z,22.69
2018-10-16T20:18:45.193Z,22.70
2018-10-16T20:23:48.509Z,22.68
2018-10-16T20:28:51.809Z,22.67
2018-10-16T20:33:55.091Z,22.67
2018-10-16T20:38:58.359Z,22.73
2018-10-16T20:44:01.664Z,22.67
2018-10-16T20:49:05.746Z,22.66
2018-10-16T20:54:10.135Z,22.69
2018-10-16T20:59:13.436Z,22.70
2018-10-16T21:04:16.958Z,22.67
2018-10-16T21:09:20.279Z,22.69
2018-10-16T21:14:23.563Z,22.65
2018-10-16T21:19:26.938Z,22.65
2018-10-16T21:24:30.239Z,22.66
2018-10-16T21:29:34.796Z,22.66
2018-10-16T21:34:38.774Z,22.66
2018-10-16T21:39:42.431Z,22.65
2018-10-16T21:44:46.212Z,22.68
2018-10-16T21:49:49.487Z,22.69
2018-10-16T21:54:52.933Z,22.68
2018-10-16T21:59:56.224Z,22.66
2018-10-16T22:04:59.517Z,22.64
2018-10-16T22:10:02.999Z,22.64
2018-10-16T22:15:06.277Z,22.65
2018-10-16T22:20:09.551Z,22.67
2018-10-16T22:25:13.284Z,22.66
2018-10-16T22:30:16.507Z,22.65
2018-10-16T22:35:19.759Z,22.64
2018-10-16T22:40:23.015Z,22.62
2018-10-16T22:45:26.278Z,22.64
2018-10-16T22:50:29.615Z,22.63
2018-10-16T22:55:33.072Z,22.67
2018-10-16T23:00:36.487Z,22.61
2018-10-16T23:05:39.739Z,22.62
2018-10-16T23:10:42.987Z,22.61
2018-10-16T23:15:46.316Z,22.64
2018-10-16T23:20:49.731Z,22.69
2018-10-16T23:25:53.199Z,22.60
2018-10-16T23:30:56.625Z,22.62
2018-10-16T23:36:00.039Z,22.63
2018-10-16T23:41:03.647Z,22.59
2018-10-16T23:46:07.399Z,22.60
2018-10-16T23:51:10.709Z,22.62
2018-10-16T23:56:14.022Z,22.62
